Time;durP1;ratioP1;P1;durP2;ratioP2;P2;SDS_P1;SDS_P2;PMS_P1;PMS_P2;Temp;Humidity;BMP_temperature;BMP_pressure;BME280_temperature;BME280_humidity;BME280_pressure;Samples;Min_cycle;Max_cycle;Signal;HPM_P1;HPM_P2
2024/02/18 00:00:59;;;;;;;;;15.00;13.33;;;;;17.43;92.35;102742.88;2106132;28;46396;-50
2024/02/18 00:02:03;;;;;;;;;13.00;12.67;;;;;17.42;91.98;102741.13;2105874;28;47043;-51
2024/02/18 00:03:03;;;;;;;;;12.50;11.50;;;;;17.37;91.86;102745.66;2100115;28;46800;-54
2024/02/18 00:04:04;;;;;;;;;14.00;12.33;;;;;17.39;91.92;102745.63;2105762;27;46751;-48
2024/02/18 00:05:05;;;;;;;;;16.25;14.00;;;;;17.62;90.86;102746.09;2107461;27;46129;-53
2024/02/18 00:06:06;;;;;;;;;12.50;12.25;;;;;17.43;91.87;102742.00;2106600;28;46438;-52
2024/02/18 00:07:06;;;;;;;;;14.00;13.00;;;;;17.56;91.05;102740.88;2105903;28;46312;-50
2024/02/18 00:08:07;;;;;;;;;13.00;12.33;;;;;17.68;90.11;102753.19;2096546;28;46842;-50
2024/02/18 00:09:07;;;;;;;;;16.67;16.67;;;;;17.66;89.62;102745.16;2097450;28;46764;-51
2024/02/18 00:10:08;;;;;;;;;13.67;12.67;;;;;17.42;90.45;102753.66;2105754;28;46281;-50
2024/02/18 00:11:08;;;;;;;;;11.67;11.67;;;;;17.67;90.19;102748.72;2105960;28;46494;-52
2024/02/18 00:12:08;;;;;;;;;14.33;13.00;;;;;17.74;89.45;102755.75;2105081;28;46181;-52
2024/02/18 00:13:09;;;;;;;;;13.33;13.33;;;;;17.76;89.37;102751.25;2109696;27;45869;-49
2024/02/18 00:14:09;;;;;;;;;14.67;12.00;;;;;17.77;89.00;102753.91;2106567;28;46318;-49
2024/02/18 00:15:10;;;;;;;;;11.00;11.00;;;;;17.79;88.78;102753.91;2105901;28;47113;-53
2024/02/18 00:16:10;;;;;;;;;14.25;13.00;;;;;17.76;89.14;102751.25;2104400;28;46175;-51
2024/02/18 00:17:10;;;;;;;;;17.50;16.25;;;;;17.72;89.20;102752.22;2105995;28;46736;-52
2024/02/18 00:18:11;;;;;;;;;15.00;14.33;;;;;17.79;89.18;102748.53;2105828;28;46320;-51
2024/02/18 00:19:11;;;;;;;;;14.33;12.33;;;;;17.80;88.75;102743.13;2106034;28;46179;-49
2024/02/18 00:20:11;;;;;;;;;12.50;12.50;;;;;17.81;88.68;102742.19;2104266;28;46707;-52
2024/02/18 00:21:18;;;;;;;;;16.25;13.75;;;;;17.83;88.63;102744.84;2095877;28;46705;-52
2024/02/18 00:22:18;;;;;;;;;11.50;11.50;;;;;17.79;88.38;102741.34;2097380;28;46693;-51
2024/02/18 00:23:18;;;;;;;;;14.33;13.00;;;;;17.80;88.52;102734.19;2105611;28;46572;-50
2024/02/18 00:24:19;;;;;;;;;12.67;12.00;;;;;17.79;88.07;102735.97;2105472;28;46478;-54
2024/02/18 00:25:19;;;;;;;;;15.00;14.00;;;;;17.79;88.22;102737.78;2105995;28;46501;-53
2024/02/18 00:26:19;;;;;;;;;16.33;14.33;;;;;17.76;88.02;102733.34;2105809;28;46708;-53
2024/02/18 00:27:20;;;;;;;;;13.00;12.00;;;;;17.68;88.23;102729.91;2105885;28;46759;-53
2024/02/18 00:28:20;;;;;;;;;13.67;13.67;;;;;17.67;88.90;102733.50;2105754;28;46578;-53
2024/02/18 00:29:21;;;;;;;;;11.00;11.00;;;;;17.65;88.68;102730.81;2096741;28;46503;-52
2024/02/18 00:30:21;;;;;;;;;12.67;12.33;;;;;17.52;88.63;102731.06;2096675;28;46561;-49
2024/02/18 00:31:22;;;;;;;;;10.67;10.67;;;;;17.35;89.73;102734.06;2106301;28;46508;-52
2024/02/18 00:32:22;;;;;;;;;12.00;12.00;;;;;17.62;90.28;102730.00;2105662;28;46806;-49
2024/02/18 00:33:22;;;;;;;;;14.33;14.33;;;;;17.47;90.32;102731.16;2106051;28;46334;-52
2024/02/18 00:34:23;;;;;;;;;14.00;11.00;;;;;17.43;88.96;102732.16;2105598;28;46247;-51
2024/02/18 00:35:23;;;;;;;;;16.00;13.33;;;;;17.46;88.92;102723.16;2090491;28;46264;-53
2024/02/18 00:36:24;;;;;;;;;16.00;14.00;;;;;17.60;88.99;102732.72;2096802;28;46289;-50
2024/02/18 00:37:25;;;;;;;;;15.00;13.33;;;;;17.62;88.77;102727.31;2104419;28;46235;-52
2024/02/18 00:38:27;;;;;;;;;7.50;7.00;;;;;17.47;90.07;102722.22;2096873;28;46728;-52
2024/02/18 00:39:27;;;;;;;;;14.50;14.00;;;;;17.52;89.79;102731.06;2096986;28;46517;-50
2024/02/18 00:40:28;;;;;;;;;9.33;9.33;;;;;17.54;89.62;102729.28;2106281;28;46796;-51
2024/02/18 00:41:28;;;;;;;;;15.33;14.00;;;;;17.53;89.74;102733.75;2106019;28;46651;-54
2024/02/18 00:42:29;;;;;;;;;15.00;14.00;;;;;17.50;89.53;102732.91;2106344;28;46834;-50
2024/02/18 00:43:29;;;;;;;;;15.67;13.33;;;;;17.50;89.52;102732.91;2105813;28;46618;-54
2024/02/18 00:44:29;;;;;;;;;11.50;10.00;;;;;17.42;89.66;102727.69;2105551;28;46729;-54
2024/02/18 00:45:30;;;;;;;;;13.67;13.67;;;;;17.43;90.13;102726.78;2105619;28;46269;-52
2024/02/18 00:46:30;;;;;;;;;12.67;12.33;;;;;17.29;89.72;102731.53;2105835;28;46551;-52
2024/02/18 00:47:30;;;;;;;;;12.67;12.67;;;;;17.44;90.37;102731.25;2105863;28;45499;-54
2024/02/18 00:48:31;;;;;;;;;10.00;10.00;;;;;17.31;90.70;102729.69;2105837;28;46419;-52
2024/02/18 00:49:32;;;;;;;;;14.00;12.00;;;;;17.59;90.33;102732.75;2105862;28;46646;-50
2024/02/18 00:50:32;;;;;;;;;14.50;13.50;;;;;17.64;89.38;102733.53;2102588;28;46924;-53
2024/02/18 00:51:33;;;;;;;;;13.00;12.00;;;;;17.65;89.10;102736.19;2088185;28;46622;-51
2024/02/18 00:52:33;;;;;;;;;13.33;11.67;;;;;17.66;88.71;102734.41;2095333;28;46728;-51
2024/02/18 00:53:33;;;;;;;;;13.25;13.00;;;;;17.67;88.53;102743.34;2101095;28;46856;-49
2024/02/18 00:54:34;;;;;;;;;12.67;12.67;;;;;17.68;88.67;102748.69;2105575;28;46632;-51
2024/02/18 00:55:34;;;;;;;;;13.67;13.67;;;;;17.57;88.76;102748.00;2105574;28;46631;-53
2024/02/18 00:56:34;;;;;;;;;14.00;12.00;;;;;17.58;89.69;102744.41;2105434;28;46908;-53
2024/02/18 00:57:35;;;;;;;;;14.33;14.33;;;;;17.40;89.14;102750.09;2104219;28;46528;-50
2024/02/18 00:58:35;;;;;;;;;14.33;12.00;;;;;17.33;89.76;102746.63;2104515;28;46362;-52
2024/02/18 00:59:35;;;;;;;;;11.00;11.00;;;;;17.34;90.33;102746.59;2104874;27;46753;-50
2024/02/18 01:00:37;;;;;;;;;13.00;11.33;;;;;17.61;89.55;102749.72;2105736;27;46578;-53
2024/02/18 01:01:37;;;;;;;;;10.75;10.75;;;;;17.62;88.79;102751.47;2103889;27;46260;-52
2024/02/18 01:02:37;;;;;;;;;12.67;12.00;;;;;17.62;88.63;102748.78;2105777;27;46307;-53
2024/02/18 01:03:38;;;;;;;;;10.33;10.33;;;;;17.57;88.34;102750.69;2106785;27;46849;-49
2024/02/18 01:04:39;;;;;;;;;10.75;10.75;;;;;17.54;88.83;102746.28;2104901;27;46550;-51
2024/02/18 01:05:39;;;;;;;;;11.67;11.67;;;;;17.49;88.91;102742.75;2106643;27;46307;-51
2024/02/18 01:06:39;;;;;;;;;11.33;11.33;;;;;17.46;89.22;102745.50;2106710;27;46435;-53
2024/02/18 01:07:39;;;;;;;;;10.00;10.00;;;;;17.41;89.21;102742.03;2105442;28;46578;-49
2024/02/18 01:08:41;;;;;;;;;12.00;12.00;;;;;17.43;89.00;102742.00;2105720;28;45917;-50
2024/02/18 01:09:42;;;;;;;;;10.75;10.75;;;;;17.43;88.92;102740.19;2105267;28;46704;-49
2024/02/18 01:10:42;;;;;;;;;10.75;10.75;;;;;17.41;89.06;102739.34;2105649;28;46909;-52
2024/02/18 01:11:43;;;;;;;;;12.67;11.33;;;;;17.41;89.82;102731.31;2095663;28;46602;-50
2024/02/18 01:12:43;;;;;;;;;7.33;7.33;;;;;17.38;89.81;102734.00;2098514;28;46525;-51
2024/02/18 01:13:43;;;;;;;;;14.67;11.67;;;;;17.45;89.50;102729.44;2105338;28;46521;-51
2024/02/18 01:14:44;;;;;;;;;11.00;11.00;;;;;17.34;89.02;102732.31;2087213;28;46568;-49
2024/02/18 01:15:44;;;;;;;;;14.33;12.33;;;;;17.24;89.52;102725.31;2087435;28;46143;-53
2024/02/18 01:16:44;;;;;;;;;12.33;10.33;;;;;17.26;90.15;102721.69;2102226;28;46684;-50
2024/02/18 01:17:45;;;;;;;;;10.33;10.33;;;;;17.30;90.02;102725.22;2087639;28;46230;-50
2024/02/18 01:18:45;;;;;;;;;11.00;9.67;;;;;17.27;89.79;102718.09;2087727;28;46356;-52
2024/02/18 01:19:45;;;;;;;;;12.00;11.00;;;;;17.27;90.18;102727.94;2094095;28;46082;-54
2024/02/18 01:20:46;;;;;;;;;16.50;14.25;;;;;17.26;90.17;102727.06;2089303;28;46800;-51
2024/02/18 01:21:46;;;;;;;;;10.00;10.00;;;;;17.23;90.21;102728.94;2105376;28;46579;-52
2024/02/18 01:22:47;;;;;;;;;12.00;12.00;;;;;17.24;89.98;102726.22;2095349;28;45704;-50
2024/02/18 01:23:47;;;;;;;;;14.50;12.00;;;;;17.25;90.29;102727.09;2104534;28;46222;-52
2024/02/18 01:24:47;;;;;;;;;11.00;11.00;;;;;17.11;90.55;102732.69;2103654;28;46918;-51
2024/02/18 01:25:48;;;;;;;;;12.33;11.00;;;;;17.06;91.09;102734.59;2103690;28;46601;-52
2024/02/18 01:26:48;;;;;;;;;12.33;10.67;;;;;17.10;91.28;102738.09;2104932;28;46489;-53
2024/02/18 01:27:50;;;;;;;;;14.33;11.33;;;;;17.09;91.14;102734.53;2105229;28;46743;-50
2024/02/18 01:28:51;;;;;;;;;12.25;11.00;;;;;17.01;91.19;102741.81;2104788;27;46937;-51
2024/02/18 01:29:51;;;;;;;;;12.00;12.00;;;;;17.01;91.19;102739.13;2106838;27;46645;-52
2024/02/18 01:30:52;;;;;;;;;14.00;13.00;;;;;17.14;90.67;102739.81;2107221;27;46503;-50
2024/02/18 01:31:52;;;;;;;;;11.33;11.33;;;;;17.18;90.70;102728.13;2105373;28;46686;-52
2024/02/18 01:32:52;;;;;;;;;13.00;12.00;;;;;17.14;90.64;102738.00;2105514;28;46628;-52
2024/02/18 01:33:53;;;;;;;;;12.00;11.00;;;;;17.06;91.47;102738.16;2105577;28;46662;-52
2024/02/18 01:34:55;;;;;;;;;13.33;13.33;;;;;17.00;91.47;102734.66;2102564;27;46818;-49
2024/02/18 01:35:55;;;;;;;;;12.50;11.25;;;;;17.06;92.23;102729.22;2099693;28;46062;-53
2024/02/18 01:36:55;;;;;;;;;11.00;11.00;;;;;17.11;92.02;102727.34;2105307;28;46858;-51
2024/02/18 01:37:55;;;;;;;;;15.33;13.00;;;;;17.05;91.53;102738.19;2105172;28;46684;-49
2024/02/18 01:38:56;;;;;;;;;13.00;13.00;;;;;17.09;91.50;102726.47;2105374;28;46720;-50
2024/02/18 01:39:56;;;;;;;;;12.33;12.33;;;;;17.12;91.17;102729.09;2105023;28;48390;-49
2024/02/18 01:40:57;;;;;;;;;12.67;12.33;;;;;16.84;92.09;102733.16;2105077;28;46999;-48
2024/02/18 01:41:57;;;;;;;;;11.00;11.00;;;;;16.75;92.48;102729.69;2105588;28;46322;-51
2024/02/18 01:42:57;;;;;;;;;15.00;13.67;;;;;17.17;92.01;102718.31;2104821;28;46553;-50
2024/02/18 01:43:57;;;;;;;;;10.00;10.00;;;;;17.15;90.99;102723.72;2105341;28;46817;-48
2024/02/18 01:44:58;;;;;;;;;12.00;12.00;;;;;17.26;90.75;102728.88;2103970;28;46496;-50
2024/02/18 01:45:59;;;;;;;;;12.67;11.33;;;;;17.11;91.53;102734.50;2105191;28;45822;-51
2024/02/18 01:47:00;;;;;;;;;10.25;10.25;;;;;16.94;90.57;102727.63;2105286;28;46551;-52
2024/02/18 01:48:01;;;;;;;;;14.25;13.50;;;;;16.85;92.94;102732.25;2105150;28;46444;-52
2024/02/18 01:49:03;;;;;;;;;10.33;10.33;;;;;16.72;93.52;102732.44;2105350;28;46715;-51
2024/02/18 01:50:04;;;;;;;;;11.00;10.75;;;;;16.67;93.71;102726.25;2105125;28;46767;-51
2024/02/18 01:51:06;;;;;;;;;11.00;11.00;;;;;17.08;92.92;102724.72;2105137;27;46947;-51
2024/02/18 01:52:08;;;;;;;;;12.75;11.75;;;;;17.22;91.75;102727.16;2105353;28;46584;-51
2024/02/18 01:53:09;;;;;;;;;13.75;12.00;;;;;17.16;90.82;102719.22;2105076;28;46384;-52
2024/02/18 01:54:09;;;;;;;;;9.50;9.50;;;;;17.13;91.63;102724.63;2105077;28;46266;-50
2024/02/18 01:55:12;;;;;;;;;13.25;12.00;;;;;17.21;90.83;102714.66;2105134;28;46063;-50
2024/02/18 01:56:16;;;;;;;;;12.50;11.50;;;;;16.88;92.24;102718.78;2105632;28;46426;-53
2024/02/18 01:57:17;;;;;;;;;12.80;12.60;;;;;16.96;91.10;102717.75;2104670;27;46890;-51
2024/02/18 01:58:18;;;;;;;;;13.40;11.40;;;;;16.83;91.63;102717.97;2104888;28;46192;-52
2024/02/18 01:59:18;;;;;;;;;14.00;12.25;;;;;17.02;92.32;102706.94;2101283;28;46578;-53
2024/02/18 02:00:19;;;;;;;;;11.75;10.50;;;;;16.70;92.43;102718.16;2099348;28;46891;-52
2024/02/18 02:01:20;;;;;;;;;12.00;12.00;;;;;17.04;92.21;102707.78;2105384;28;46709;-49
2024/02/18 02:02:21;;;;;;;;;12.00;12.00;;;;;17.08;91.82;102705.06;2105419;28;46473;-52
2024/02/18 02:03:22;;;;;;;;;10.75;8.00;;;;;16.99;91.77;102706.06;2098208;28;46379;-49
2024/02/18 02:04:23;;;;;;;;;12.40;12.40;;;;;16.70;92.59;102711.91;2104939;28;46931;-51
2024/02/18 02:05:25;;;;;;;;;14.50;11.75;;;;;17.11;91.66;102708.56;2104959;28;46097;-50
2024/02/18 02:06:29;;;;;;;;;15.00;14.20;;;;;17.17;91.14;102704.91;2105094;28;46758;-51
2024/02/18 02:07:29;;;;;;;;;15.00;14.00;;;;;17.17;90.72;102697.72;2100416;28;45064;-53
2024/02/18 02:08:30;;;;;;;;;14.50;13.00;;;;;16.76;90.94;102704.66;2100800;28;46244;-52
2024/02/18 02:09:31;;;;;;;;;15.60;13.00;;;;;16.68;93.43;102709.25;2105208;28;46848;-54
2024/02/18 02:10:31;;;;;;;;;12.50;11.00;;;;;16.66;93.91;102712.84;2104872;28;46881;-53
2024/02/18 02:11:32;;;;;;;;;13.50;12.50;;;;;16.99;93.15;102712.31;2103962;27;46354;-53
2024/02/18 02:12:34;;;;;;;;;9.25;7.25;;;;;17.03;91.96;102708.72;2105443;27;46820;-53
2024/02/18 02:13:34;;;;;;;;;14.60;14.00;;;;;16.85;94.04;102700.06;2105495;28;45778;-50
2024/02/18 02:14:35;;;;;;;;;15.00;11.50;;;;;16.55;94.12;102698.72;2088397;28;46477;-54
2024/02/18 02:15:35;;;;;;;;;11.50;11.50;;;;;16.74;94.91;102700.22;2088287;28;46718;-55
2024/02/18 02:16:35;;;;;;;;;13.00;13.00;;;;;16.80;94.90;102692.09;2105098;28;46592;-52
2024/02/18 02:17:39;;;;;;;;;12.75;12.75;;;;;16.84;92.95;102695.59;2105636;27;46640;-52
2024/02/18 02:18:39;;;;;;;;;13.00;13.00;;;;;16.91;92.79;102689.25;2096860;28;46536;-53
2024/02/18 02:19:40;;;;;;;;;14.50;14.00;;;;;16.95;92.70;102690.97;2105115;27;46337;-52
2024/02/18 02:20:40;;;;;;;;;14.25;11.50;;;;;16.59;92.49;102692.38;2105820;27;46562;-50
2024/02/18 02:21:41;;;;;;;;;11.00;10.75;;;;;16.81;92.92;102698.34;2105007;28;46143;-52
2024/02/18 02:22:41;;;;;;;;;13.25;13.25;;;;;16.87;93.24;102695.56;2106010;27;45865;-50
2024/02/18 02:23:41;;;;;;;;;13.50;12.25;;;;;16.48;93.54;102695.22;2105551;27;46493;-52
2024/02/18 02:24:42;;;;;;;;;14.00;13.00;;;;;16.51;93.67;102700.53;2105146;28;45012;-49
2024/02/18 02:25:43;;;;;;;;;13.00;12.00;;;;;16.43;94.17;102699.78;2097061;28;46036;-51
2024/02/18 02:26:47;;;;;;;;;13.00;12.75;;;;;16.37;95.15;102692.69;2096219;28;45892;-49
2024/02/18 02:28:12;;;;;;;;;15.60;15.60;;;;;16.37;95.40;102698.06;2100280;28;46200;-51
2024/02/18 02:29:15;;;;;;;;;12.00;12.00;;;;;16.82;94.66;102698.31;2105689;27;45703;-50
2024/02/18 02:30:15;;;;;;;;;14.60;14.00;;;;;16.96;92.74;102700.78;2105369;27;46749;-50
2024/02/18 02:31:15;;;;;;;;;12.00;11.75;;;;;16.97;92.07;102694.50;2105015;28;46254;-53
2024/02/18 02:32:16;;;;;;;;;10.33;10.00;;;;;17.00;91.62;102697.13;2105227;27;46747;-53
2024/02/18 02:33:17;;;;;;;;;12.00;11.00;;;;;17.00;91.07;102689.06;2105352;27;46940;-50
2024/02/18 02:34:17;;;;;;;;;12.60;12.20;;;;;16.99;91.07;102692.66;2104939;28;47031;-52
2024/02/18 02:35:18;;;;;;;;;12.75;12.75;;;;;17.00;91.22;102695.31;2103587;27;46347;-53
2024/02/18 02:36:18;;;;;;;;;11.50;11.50;;;;;17.01;91.08;102693.53;2103335;28;46275;-51
2024/02/18 02:37:18;;;;;;;;;14.75;13.75;;;;;17.03;91.45;102694.41;2104888;27;46272;-52
2024/02/18 02:38:19;;;;;;;;;14.75;13.00;;;;;17.03;91.22;102691.72;2088287;28;46948;-53
2024/02/18 02:39:19;;;;;;;;;12.50;12.50;;;;;17.04;91.40;102683.66;2089894;28;46426;-55
2024/02/18 02:40:20;;;;;;;;;13.33;13.33;;;;;17.06;91.63;102686.31;2109494;27;45095;-53
2024/02/18 02:41:20;;;;;;;;;13.75;13.00;;;;;17.04;91.56;102683.66;2104735;28;47619;-50
2024/02/18 02:42:20;;;;;;;;;12.00;12.00;;;;;16.99;91.60;102687.31;2110284;27;46553;-52
2024/02/18 02:43:21;;;;;;;;;10.00;10.00;;;;;16.96;91.84;102685.56;2105432;27;46226;-51
2024/02/18 02:44:21;;;;;;;;;12.00;11.00;;;;;16.67;91.61;102691.41;2097941;28;46271;-52
2024/02/18 02:45:22;;;;;;;;;13.33;13.00;;;;;16.46;94.02;102683.66;2102530;27;46356;-54
2024/02/18 02:46:23;;;;;;;;;14.00;13.40;;;;;16.47;94.27;102683.63;2105482;27;46958;-54
2024/02/18 02:47:24;;;;;;;;;12.00;12.00;;;;;16.69;94.80;102688.69;2104439;28;46820;-52
2024/02/18 02:48:24;;;;;;;;;13.00;11.75;;;;;16.78;94.01;102677.84;2104217;27;46527;-53
2024/02/18 02:49:24;;;;;;;;;15.25;15.25;;;;;16.71;92.49;102676.16;2104887;28;46187;-53
2024/02/18 02:50:25;;;;;;;;;13.00;12.25;;;;;16.78;93.60;102672.47;2086428;28;46849;-51
2024/02/18 02:51:26;;;;;;;;;13.50;12.50;;;;;16.76;93.69;102677.84;2087187;28;46551;-53
2024/02/18 02:52:27;;;;;;;;;13.00;10.60;;;;;16.61;94.32;102678.06;2103283;28;47778;-54
2024/02/18 02:53:27;;;;;;;;;10.75;10.00;;;;;16.84;94.37;102672.34;2109768;27;46481;-53
2024/02/18 02:54:27;;;;;;;;;14.00;13.75;;;;;16.92;93.07;102666.88;2104931;27;46418;-50
2024/02/18 02:55:28;;;;;;;;;12.67;12.33;;;;;16.93;92.61;102668.66;2105045;28;46218;-50
2024/02/18 02:56:28;;;;;;;;;11.00;11.00;;;;;16.92;92.40;102669.56;2108739;27;46462;-52
2024/02/18 02:57:28;;;;;;;;;11.25;10.50;;;;;16.90;91.83;102668.72;2105283;27;46392;-51
2024/02/18 02:58:28;;;;;;;;;13.00;13.00;;;;;16.66;91.87;102664.59;2109031;27;46914;-50
2024/02/18 02:59:31;;;;;;;;;11.60;11.60;;;;;16.61;93.75;102669.13;2107404;27;46299;-50
2024/02/18 03:00:32;;;;;;;;;12.33;11.00;;;;;16.85;93.28;102660.72;2106985;27;46285;-53
2024/02/18 03:01:32;;;;;;;;;11.20;11.20;;;;;16.79;92.97;102662.63;2105436;28;46769;-52
2024/02/18 03:02:32;;;;;;;;;12.33;12.33;;;;;16.62;93.22;102665.53;2096952;28;46620;-54
2024/02/18 03:03:33;;;;;;;;;13.75;13.75;;;;;16.59;93.72;102654.88;2100994;28;46669;-50
2024/02/18 03:04:33;;;;;;;;;11.00;11.00;;;;;16.51;94.08;102654.97;2105060;28;46597;-50
2024/02/18 03:05:33;;;;;;;;;12.00;12.00;;;;;16.45;94.58;102650.59;2104720;28;46259;-53
2024/02/18 03:06:34;;;;;;;;;13.00;13.00;;;;;16.40;95.24;102646.25;2096232;28;46332;-52
2024/02/18 03:07:34;;;;;;;;;11.33;11.33;;;;;16.32;95.58;102643.66;2096052;28;46124;-50
2024/02/18 03:08:34;;;;;;;;;13.67;11.00;;;;;16.35;96.04;102640.94;2102968;28;46426;-52
2024/02/18 03:09:35;;;;;;;;;12.00;12.00;;;;;16.35;95.75;102643.59;2104922;28;46694;-49
2024/02/18 03:10:38;;;;;;;;;13.25;11.00;;;;;16.32;95.83;102630.25;2104957;28;46225;-52
2024/02/18 03:11:38;;;;;;;;;14.60;13.00;;;;;16.24;96.75;102625.91;2099517;28;46974;-50
2024/02/18 03:12:39;;;;;;;;;11.50;10.75;;;;;16.35;96.55;102621.28;2107628;27;46421;-51
2024/02/18 03:13:39;;;;;;;;;13.75;12.50;;;;;16.33;95.92;102620.44;2106550;27;46404;-53
2024/02/18 03:14:39;;;;;;;;;10.00;10.00;;;;;16.15;96.15;102618.94;2104373;28;46675;-51
2024/02/18 03:15:40;;;;;;;;;10.00;10.00;;;;;16.24;97.32;102609.84;2105173;28;46764;-53
2024/02/18 03:16:40;;;;;;;;;12.00;11.00;;;;;16.30;97.05;102610.66;2104652;28;46115;-50
2024/02/18 03:17:40;;;;;;;;;13.00;12.00;;;;;16.59;96.04;102612.88;2104778;28;46549;-51
2024/02/18 03:18:42;;;;;;;;;13.00;12.00;;;;;16.64;95.76;102607.41;2104793;28;46869;-50
2024/02/18 03:19:43;;;;;;;;;13.50;11.00;;;;;16.33;96.01;102613.28;2105646;27;46421;-52
2024/02/18 03:20:43;;;;;;;;;10.33;9.00;;;;;15.99;96.27;102603.97;2105107;28;45788;-51
2024/02/18 03:21:43;;;;;;;;;11.33;11.33;;;;;16.45;97.24;102601.47;2104145;28;46191;-51
2024/02/18 03:22:44;;;;;;;;;11.33;11.33;;;;;16.35;95.97;102611.47;2078546;28;46427;-52
2024/02/18 03:23:44;;;;;;;;;11.50;11.50;;;;;16.31;96.50;102606.19;2080228;28;46833;-51
2024/02/18 03:24:44;;;;;;;;;8.75;8.75;;;;;16.28;96.66;102609.78;2104190;28;46480;-49
2024/02/18 03:25:45;;;;;;;;;13.00;12.33;;;;;16.30;96.63;102605.28;2105487;28;46350;-49
2024/02/18 03:26:46;;;;;;;;;12.00;9.50;;;;;16.23;97.21;102602.72;2104957;28;46333;-50
2024/02/18 03:27:46;;;;;;;;;9.67;9.67;;;;;16.30;96.59;102615.13;2106104;28;46081;-47
2024/02/18 03:28:47;;;;;;;;;10.75;10.75;;;;;16.57;96.03;102611.13;2106396;28;46639;-48
2024/02/18 03:29:48;;;;;;;;;11.60;11.20;;;;;16.66;94.61;102603.81;2104964;28;46083;-49
2024/02/18 03:30:50;;;;;;;;;11.33;11.33;;;;;16.68;93.96;102612.75;2104848;28;46644;-52
2024/02/18 03:31:52;;;;;;;;;12.50;11.00;;;;;16.38;93.99;102614.06;2105307;27;46373;-50
2024/02/18 03:32:52;;;;;;;;;11.20;9.60;;;;;16.55;96.30;102604.91;2102168;28;46448;-52
2024/02/18 03:33:53;;;;;;;;;12.25;11.00;;;;;16.72;94.75;102610.91;2106591;27;47040;-51
2024/02/18 03:34:54;;;;;;;;;13.75;11.25;;;;;16.73;93.91;102608.19;2103318;28;46613;-52
2024/02/18 03:35:54;;;;;;;;;9.00;7.67;;;;;16.72;94.14;102605.53;2100185;28;47190;-52
2024/02/18 03:36:54;;;;;;;;;10.25;10.25;;;;;16.33;95.49;102610.59;2106437;28;46642;-51
2024/02/18 03:37:56;;;;;;;;;11.33;11.33;;;;;16.39;94.80;102610.53;2106129;28;46576;-49
2024/02/18 03:38:56;;;;;;;;;13.20;12.20;;;;;16.30;96.39;102607.97;2105822;28;46275;-51
2024/02/18 03:39:57;;;;;;;;;10.50;10.50;;;;;16.68;95.57;102607.38;2105798;28;46646;-51
2024/02/18 03:40:57;;;;;;;;;13.75;11.00;;;;;16.29;95.61;102608.88;2105757;28;46512;-52
2024/02/18 03:41:58;;;;;;;;;10.00;10.00;;;;;16.26;96.59;102599.97;2106347;28;46541;-53
2024/02/18 03:42:58;;;;;;;;;13.50;12.00;;;;;16.23;96.86;102602.72;2106575;28;46413;-51
2024/02/18 03:43:58;;;;;;;;;12.00;12.00;;;;;16.34;97.13;102592.72;2106016;28;46345;-50
2024/02/18 03:44:59;;;;;;;;;10.75;10.00;;;;;16.22;95.73;102595.59;2106143;28;46218;-52
2024/02/18 03:45:59;;;;;;;;;9.00;9.00;;;;;16.15;96.39;102589.47;2105969;28;46473;-50
2024/02/18 03:47:00;;;;;;;;;10.33;10.33;;;;;16.66;95.37;102585.06;2106111;28;46437;-50
2024/02/18 03:48:01;;;;;;;;;11.40;10.00;;;;;16.70;94.15;102581.44;2106145;28;46742;-54
2024/02/18 03:49:01;;;;;;;;;14.00;12.00;;;;;16.74;93.61;102577.78;2104877;28;45353;-52
2024/02/18 03:50:02;;;;;;;;;12.75;11.75;;;;;16.72;93.44;102573.38;2106024;28;46654;-52
2024/02/18 03:51:02;;;;;;;;;11.33;11.00;;;;;16.68;93.37;102561.81;2106378;28;45594;-49
2024/02/18 03:52:03;;;;;;;;;12.33;11.00;;;;;16.72;93.35;102562.63;2106120;28;46665;-49
2024/02/18 03:53:03;;;;;;;;;10.00;9.00;;;;;16.29;94.34;102562.47;2106329;28;46496;-49
2024/02/18 03:54:03;;;;;;;;;11.00;11.00;;;;;16.18;96.02;102551.91;2106186;28;45925;-52
2024/02/18 03:55:04;;;;;;;;;11.75;10.50;;;;;16.08;95.86;102564.56;2105942;28;46875;-52
2024/02/18 03:56:05;;;;;;;;;9.50;8.50;;;;;16.15;96.09;102547.50;2106372;28;46608;-53
2024/02/18 03:57:05;;;;;;;;;9.80;9.40;;;;;16.27;96.35;102553.56;2106010;28;46130;-52
2024/02/18 03:58:05;;;;;;;;;10.00;9.67;;;;;16.35;96.64;102551.63;2105923;28;46500;-53
2024/02/18 03:59:08;;;;;;;;;12.25;10.75;;;;;16.04;96.66;102552.13;2105852;28;46388;-53
2024/02/18 04:00:11;;;;;;;;;10.20;10.20;;;;;16.03;97.23;102561.06;2104879;28;46480;-51
2024/02/18 04:01:12;;;;;;;;;11.00;11.00;;;;;16.45;96.45;102548.78;2097778;28;46385;-50
2024/02/18 04:02:12;;;;;;;;;7.67;7.67;;;;;16.19;95.35;102551.00;2103510;28;46734;-53
2024/02/18 04:03:13;;;;;;;;;12.75;12.00;;;;;16.16;96.67;102546.56;2105142;28;46377;-53
2024/02/18 04:04:14;;;;;;;;;10.50;10.50;;;;;16.06;96.93;102544.06;2105342;28;46914;-52
2024/02/18 04:05:14;;;;;;;;;12.33;12.33;;;;;15.98;97.28;102541.47;2104552;28;46337;-52
2024/02/18 04:06:14;;;;;;;;;11.67;11.67;;;;;15.92;98.29;102541.59;2106190;28;45579;-52
2024/02/18 04:07:15;;;;;;;;;10.00;10.00;;;;;16.45;98.14;102538.06;2105909;28;46251;-53
2024/02/18 04:08:15;;;;;;;;;11.67;10.00;;;;;16.62;95.24;102543.09;2105092;28;46215;-51
2024/02/18 04:09:16;;;;;;;;;11.00;11.00;;;;;16.68;94.01;102532.31;2097778;28;46324;-52
2024/02/18 04:10:16;;;;;;;;;11.33;10.00;;;;;16.70;93.79;102535.84;2102722;28;46347;-52
2024/02/18 04:11:16;;;;;;;;;12.67;11.00;;;;;16.66;94.15;102539.47;2105830;27;46232;-52
2024/02/18 04:12:17;;;;;;;;;9.67;9.67;;;;;16.69;93.20;102535.88;2106606;27;46394;-51
2024/02/18 04:13:17;;;;;;;;;13.67;11.33;;;;;16.67;93.31;102532.31;2100957;28;46220;-51
2024/02/18 04:14:17;;;;;;;;;12.00;11.33;;;;;16.60;93.85;102528.84;2106633;27;46840;-50
2024/02/18 04:15:20;;;;;;;;;9.00;9.00;;;;;16.11;94.95;102527.00;2105967;28;46666;-52
2024/02/18 04:16:21;;;;;;;;;6.00;5.25;;;;;16.57;94.91;102534.28;2106283;27;45374;-49
2024/02/18 04:17:21;;;;;;;;;13.00;11.00;;;;;16.62;94.11;102528.81;2108267;27;46873;-53
2024/02/18 04:18:22;;;;;;;;;6.67;6.67;;;;;16.64;93.54;102518.94;2109008;27;46463;-54
2024/02/18 04:19:22;;;;;;;;;9.33;9.33;;;;;16.66;93.76;102512.69;2107165;27;46784;-53
2024/02/18 04:20:22;;;;;;;;;10.00;8.67;;;;;16.66;93.45;102514.47;2106822;27;46511;-52
2024/02/18 04:21:22;;;;;;;;;11.33;10.00;;;;;16.64;94.19;102510.91;2105835;28;46466;-53
2024/02/18 04:22:23;;;;;;;;;13.00;10.00;;;;;16.30;92.93;102513.31;2105259;27;46601;-51
2024/02/18 04:23:23;;;;;;;;;12.75;12.00;;;;;16.07;96.28;102511.00;2105940;28;45938;-55
2024/02/18 04:24:24;;;;;;;;;8.00;8.00;;;;;16.00;96.38;102512.00;2105950;27;47234;-54
2024/02/18 04:25:24;;;;;;;;;11.00;10.00;;;;;15.96;97.23;102505.81;2106411;27;46301;-49
2024/02/18 04:26:24;;;;;;;;;8.33;8.00;;;;;16.28;98.80;102505.31;2105814;28;46286;-49
2024/02/18 04:27:25;;;;;;;;;9.67;9.67;;;;;16.48;96.03;102502.28;2111861;27;46680;-48
2024/02/18 04:28:25;;;;;;;;;11.50;11.50;;;;;16.54;95.07;102507.53;2106486;27;46426;-52
2024/02/18 04:29:26;;;;;;;;;12.00;12.00;;;;;16.53;95.26;102503.09;2105716;28;46241;-50
2024/02/18 04:30:26;;;;;;;;;12.25;11.00;;;;;16.59;94.24;102499.41;2109193;27;46001;-51
2024/02/18 04:31:26;;;;;;;;;11.00;9.00;;;;;16.33;93.76;102510.56;2107551;27;46290;-53
2024/02/18 04:32:27;;;;;;;;;9.67;9.33;;;;;16.20;95.38;102520.63;2100660;27;46188;-50
2024/02/18 04:33:27;;;;;;;;;13.33;10.33;;;;;16.09;96.98;102512.75;2100255;27;46458;-52
2024/02/18 04:34:27;;;;;;;;;11.00;9.67;;;;;16.57;95.66;102515.50;2104625;27;46671;-49
2024/02/18 04:35:28;;;;;;;;;10.00;9.67;;;;;16.46;95.52;102520.19;2108219;27;46575;-51
2024/02/18 04:36:28;;;;;;;;;11.25;10.75;;;;;16.10;95.37;102511.84;2105956;27;45550;-48
2024/02/18 04:37:29;;;;;;;;;9.25;8.50;;;;;16.01;97.03;102508.44;2110840;27;46592;-48